sensor_id;sensor_type;location;lat;lon;timestamp;pressure;altitude;pressure_sealevel;temperature;humidity
51781;BME280;37844;57.126;24.288;2023-04-09T00:02:10;102463.13;;;4.13;100.00
51781;BME280;37844;57.126;24.288;2023-04-09T00:04:54;102462.25;;;4.01;100.00
51781;BME280;37844;57.126;24.288;2023-04-09T00:07:38;102466.41;;;3.99;100.00
51781;BME280;37844;57.126;24.288;2023-04-09T00:10:22;102464.75;;;3.99;100.00
51781;BME280;37844;57.126;24.288;2023-04-09T00:13:06;102461.44;;;3.89;100.00
51781;BME280;37844;57.126;24.288;2023-04-09T00:15:50;102456.09;;;3.97;100.00
51781;BME280;37844;57.126;24.288;2023-04-09T00:18:34;102459.22;;;3.93;100.00
51781;BME280;37844;57.126;24.288;2023-04-09T00:21:18;102466.91;;;3.81;100.00
51781;BME280;37844;57.126;24.288;2023-04-09T00:24:03;102454.97;;;3.80;100.00
51781;BME280;37844;57.126;24.288;2023-04-09T00:26:47;102459.25;;;3.81;100.00
51781;BME280;37844;57.126;24.288;2023-04-09T00:29:32;102465.47;;;3.85;100.00
51781;BME280;37844;57.126;24.288;2023-04-09T00:32:16;102464.78;;;3.88;100.00
51781;BME280;37844;57.126;24.288;2023-04-09T00:35:00;102468.16;;;3.75;100.00
51781;BME280;37844;57.126;24.288;2023-04-09T00:37:44;102463.66;;;3.71;100.00
51781;BME280;37844;57.126;24.288;2023-04-09T00:40:28;102469.31;;;3.67;100.00
51781;BME280;37844;57.126;24.288;2023-04-09T00:43:13;102461.53;;;3.65;100.00
51781;BME280;37844;57.126;24.288;2023-04-09T00:45:57;102460.88;;;3.68;100.00
51781;BME280;37844;57.126;24.288;2023-04-09T00:48:41;102459.91;;;3.66;100.00
51781;BME280;37844;57.126;24.288;2023-04-09T00:51:25;102455.69;;;3.66;100.00
51781;BME280;37844;57.126;24.288;2023-04-09T00:54:11;102460.81;;;3.79;100.00
51781;BME280;37844;57.126;24.288;2023-04-09T00:56:55;102457.31;;;3.77;100.00
51781;BME280;37844;57.126;24.288;2023-04-09T00:59:41;102457.94;;;3.75;100.00
51781;BME280;37844;57.126;24.288;2023-04-09T01:02:25;102462.00;;;3.96;100.00
51781;BME280;37844;57.126;24.288;2023-04-09T01:05:09;102462.03;;;3.85;100.00
51781;BME280;37844;57.126;24.288;2023-04-09T01:14:01;102459.25;;;4.07;100.00
51781;BME280;37844;57.126;24.288;2023-04-09T01:16:49;102456.47;;;3.90;100.00
51781;BME280;37844;57.126;24.288;2023-04-09T01:19:52;102455.94;;;3.82;100.00
51781;BME280;37844;57.126;24.288;2023-04-09T01:22:47;102461.06;;;3.96;100.00
51781;BME280;37844;57.126;24.288;2023-04-09T01:25:36;102457.78;;;4.10;100.00
51781;BME280;37844;57.126;24.288;2023-04-09T01:28:47;102460.44;;;4.12;100.00
51781;BME280;37844;57.126;24.288;2023-04-09T01:31:31;102458.13;;;4.28;100.00
51781;BME280;37844;57.126;24.288;2023-04-09T01:34:23;102459.38;;;4.21;100.00
51781;BME280;37844;57.126;24.288;2023-04-09T01:37:08;102463.25;;;4.03;100.00
51781;BME280;37844;57.126;24.288;2023-04-09T01:39:52;102469.28;;;4.03;100.00
51781;BME280;37844;57.126;24.288;2023-04-09T01:42:36;102477.00;;;4.05;100.00
51781;BME280;37844;57.126;24.288;2023-04-09T01:45:20;102469.59;;;4.08;100.00
51781;BME280;37844;57.126;24.288;2023-04-09T01:48:05;102466.66;;;4.15;100.00
51781;BME280;37844;57.126;24.288;2023-04-09T01:50:50;102464.59;;;4.23;100.00
51781;BME280;37844;57.126;24.288;2023-04-09T01:53:34;102464.19;;;4.17;100.00
51781;BME280;37844;57.126;24.288;2023-04-09T01:56:19;102471.66;;;4.14;100.00
51781;BME280;37844;57.126;24.288;2023-04-09T01:59:04;102469.09;;;4.14;100.00
51781;BME280;37844;57.126;24.288;2023-04-09T02:02:08;102470.78;;;4.27;100.00
51781;BME280;37844;57.126;24.288;2023-04-09T02:04:53;102469.09;;;4.14;100.00
51781;BME280;37844;57.126;24.288;2023-04-09T02:07:49;102474.00;;;4.11;100.00
51781;BME280;37844;57.126;24.288;2023-04-09T02:10:35;102480.66;;;4.09;100.00
51781;BME280;37844;57.126;24.288;2023-04-09T02:13:22;102468.41;;;4.16;100.00
51781;BME280;37844;57.126;24.288;2023-04-09T02:16:07;102471.66;;;4.14;100.00
51781;BME280;37844;57.126;24.288;2023-04-09T02:18:52;102473.47;;;4.03;100.00
51781;BME280;37844;57.126;24.288;2023-04-09T02:21:36;102476.00;;;3.90;100.00
51781;BME280;37844;57.126;24.288;2023-04-09T02:24:20;102474.28;;;3.65;100.00
51781;BME280;37844;57.126;24.288;2023-04-09T02:27:04;102481.25;;;3.43;100.00
51781;BME280;37844;57.126;24.288;2023-04-09T02:29:49;102481.94;;;3.28;100.00
51781;BME280;37844;57.126;24.288;2023-04-09T02:32:33;102478.72;;;3.31;100.00
51781;BME280;37844;57.126;24.288;2023-04-09T02:35:17;102467.72;;;3.44;100.00
51781;BME280;37844;57.126;24.288;2023-04-09T02:38:02;102469.16;;;3.52;100.00
51781;BME280;37844;57.126;24.288;2023-04-09T02:40:46;102467.78;;;3.57;100.00
51781;BME280;37844;57.126;24.288;2023-04-09T02:43:30;102473.94;;;3.47;100.00
51781;BME280;37844;57.126;24.288;2023-04-09T02:46:13;102469.97;;;3.27;100.00
51781;BME280;37844;57.126;24.288;2023-04-09T02:48:57;102476.34;;;2.97;100.00
51781;BME280;37844;57.126;24.288;2023-04-09T02:51:41;102470.59;;;2.88;100.00
51781;BME280;37844;57.126;24.288;2023-04-09T02:54:25;102468.78;;;2.75;100.00
51781;BME280;37844;57.126;24.288;2023-04-09T02:57:09;102470.47;;;2.74;100.00
51781;BME280;37844;57.126;24.288;2023-04-09T02:59:54;102468.03;;;2.88;100.00
51781;BME280;37844;57.126;24.288;2023-04-09T03:02:38;102467.59;;;2.93;100.00
51781;BME280;37844;57.126;24.288;2023-04-09T03:05:22;102473.56;;;2.94;100.00
51781;BME280;37844;57.126;24.288;2023-04-09T03:08:06;102474.13;;;2.90;100.00
51781;BME280;37844;57.126;24.288;2023-04-09T03:10:50;102472.34;;;2.77;100.00
51781;BME280;37844;57.126;24.288;2023-04-09T03:13:34;102476.88;;;2.69;100.00
51781;BME280;37844;57.126;24.288;2023-04-09T03:16:18;102473.88;;;2.63;100.00
51781;BME280;37844;57.126;24.288;2023-04-09T03:19:02;102478.88;;;2.73;100.00
51781;BME280;37844;57.126;24.288;2023-04-09T03:21:45;102486.53;;;2.73;100.00
51781;BME280;37844;57.126;24.288;2023-04-09T03:24:31;102492.16;;;2.69;100.00
51781;BME280;37844;57.126;24.288;2023-04-09T03:27:16;102477.09;;;2.61;100.00
51781;BME280;37844;57.126;24.288;2023-04-09T03:30:00;102479.97;;;2.53;100.00
51781;BME280;37844;57.126;24.288;2023-04-09T03:32:44;102481.97;;;2.58;100.00
51781;BME280;37844;57.126;24.288;2023-04-09T03:35:28;102485.41;;;2.70;100.00
51781;BME280;37844;57.126;24.288;2023-04-09T03:38:11;102491.28;;;2.69;100.00
51781;BME280;37844;57.126;24.288;2023-04-09T03:40:55;102478.88;;;2.62;100.00
51781;BME280;37844;57.126;24.288;2023-04-09T03:43:39;102492.50;;;2.62;100.00
51781;BME280;37844;57.126;24.288;2023-04-09T03:46:23;102487.06;;;2.69;100.00
51781;BME280;37844;57.126;24.288;2023-04-09T03:49:08;102491.63;;;2.73;100.00
51781;BME280;37844;57.126;24.288;2023-04-09T03:51:52;102493.50;;;2.76;100.00
51781;BME280;37844;57.126;24.288;2023-04-09T03:54:36;102496.59;;;2.84;100.00
51781;BME280;37844;57.126;24.288;2023-04-09T03:57:19;102491.97;;;2.90;100.00
51781;BME280;37844;57.126;24.288;2023-04-09T04:00:04;102490.50;;;2.93;100.00
51781;BME280;37844;57.126;24.288;2023-04-09T04:02:48;102493.59;;;3.01;100.00
51781;BME280;37844;57.126;24.288;2023-04-09T04:05:32;102496.59;;;3.19;100.00
51781;BME280;37844;57.126;24.288;2023-04-09T04:08:16;102493.56;;;3.25;100.00
51781;BME280;37844;57.126;24.288;2023-04-09T04:11:03;102502.53;;;3.43;100.00
51781;BME280;37844;57.126;24.288;2023-04-09T04:13:47;102493.78;;;3.76;100.00
51781;BME280;37844;57.126;24.288;2023-04-09T04:16:31;102496.97;;;3.86;100.00
51781;BME280;37844;57.126;24.288;2023-04-09T04:19:15;102488.81;;;3.91;100.00
51781;BME280;37844;57.126;24.288;2023-04-09T04:21:59;102489.75;;;3.92;100.00
51781;BME280;37844;57.126;24.288;2023-04-09T04:24:43;102497.06;;;4.12;100.00
51781;BME280;37844;57.126;24.288;2023-04-09T04:27:27;102491.63;;;4.33;100.00
51781;BME280;37844;57.126;24.288;2023-04-09T04:30:11;102497.16;;;4.52;100.00
51781;BME280;37844;57.126;24.288;2023-04-09T04:32:55;102497.69;;;4.86;100.00
51781;BME280;37844;57.126;24.288;2023-04-09T04:35:39;102493.84;;;5.20;100.00
51781;BME280;37844;57.126;24.288;2023-04-09T04:38:23;102491.41;;;5.49;100.00
51781;BME280;37844;57.126;24.288;2023-04-09T04:41:07;102491.31;;;5.76;100.00
51781;BME280;37844;57.126;24.288;2023-04-09T04:43:51;102490.63;;;6.07;100.00
51781;BME280;37844;57.126;24.288;2023-04-09T04:46:35;102490.31;;;6.15;100.00
51781;BME280;37844;57.126;24.288;2023-04-09T04:49:19;102489.81;;;6.36;100.00
51781;BME280;37844;57.126;24.288;2023-04-09T04:52:03;102491.75;;;6.70;100.00
51781;BME280;37844;57.126;24.288;2023-04-09T04:54:46;102479.06;;;7.03;100.00
51781;BME280;37844;57.126;24.288;2023-04-09T04:57:30;102486.84;;;7.20;100.00
51781;BME280;37844;57.126;24.288;2023-04-09T05:00:14;102492.31;;;7.58;97.32
51781;BME280;37844;57.126;24.288;2023-04-09T05:02:58;102483.97;;;7.78;94.33
51781;BME280;37844;57.126;24.288;2023-04-09T05:05:42;102493.81;;;7.87;92.24
51781;BME280;37844;57.126;24.288;2023-04-09T05:08:26;102488.06;;;8.25;89.61
51781;BME280;37844;57.126;24.288;2023-04-09T05:11:11;102497.72;;;8.46;85.04
51781;BME280;37844;57.126;24.288;2023-04-09T05:13:55;102500.69;;;8.89;82.13
51781;BME280;37844;57.126;24.288;2023-04-09T05:16:39;102502.16;;;9.02;80.55
51781;BME280;37844;57.126;24.288;2023-04-09T05:19:23;102497.97;;;9.42;78.57
51781;BME280;37844;57.126;24.288;2023-04-09T05:22:07;102497.91;;;9.77;74.95
51781;BME280;37844;57.126;24.288;2023-04-09T05:24:51;102501.25;;;9.96;72.93
51781;BME280;37844;57.126;24.288;2023-04-09T05:27:35;102502.38;;;10.22;70.42
51781;BME280;37844;57.126;24.288;2023-04-09T05:30:19;102492.22;;;10.25;69.88
51781;BME280;37844;57.126;24.288;2023-04-09T05:33:03;102494.59;;;10.82;68.49
51781;BME280;37844;57.126;24.288;2023-04-09T05:35:46;102496.84;;;10.95;65.88
51781;BME280;37844;57.126;24.288;2023-04-09T05:38:30;102505.38;;;11.62;64.97
51781;BME280;37844;57.126;24.288;2023-04-09T05:41:14;102506.16;;;12.06;62.40
51781;BME280;37844;57.126;24.288;2023-04-09T05:43:58;102498.38;;;12.30;60.72
51781;BME280;37844;57.126;24.288;2023-04-09T05:46:42;102501.81;;;12.30;59.55
51781;BME280;37844;57.126;24.288;2023-04-09T05:49:26;102504.66;;;13.18;59.37
51781;BME280;37844;57.126;24.288;2023-04-09T05:52:10;102510.06;;;13.26;57.00
51781;BME280;37844;57.126;24.288;2023-04-09T05:54:54;102504.94;;;13.86;56.36
51781;BME280;37844;57.126;24.288;2023-04-09T05:57:38;102445.66;;;13.67;54.74
51781;BME280;37844;57.126;24.288;2023-04-09T06:00:22;102512.44;;;14.07;53.88
51781;BME280;37844;57.126;24.288;2023-04-09T06:03:07;102516.50;;;14.31;53.33
51781;BME280;37844;57.126;24.288;2023-04-09T06:05:51;102516.69;;;14.72;52.37
51781;BME280;37844;57.126;24.288;2023-04-09T06:08:35;102511.03;;;14.88;52.04
51781;BME280;37844;57.126;24.288;2023-04-09T06:11:20;102516.34;;;15.72;50.72
51781;BME280;37844;57.126;24.288;2023-04-09T06:14:05;102527.47;;;16.10;50.53
51781;BME280;37844;57.126;24.288;2023-04-09T06:16:49;102534.47;;;16.63;50.03
51781;BME280;37844;57.126;24.288;2023-04-09T06:19:33;102529.97;;;17.06;48.68
51781;BME280;37844;57.126;24.288;2023-04-09T06:22:17;102524.84;;;17.77;47.60
51781;BME280;37844;57.126;24.288;2023-04-09T06:25:01;102531.38;;;16.84;47.16
51781;BME280;37844;57.126;24.288;2023-04-09T06:27:45;102537.59;;;16.93;46.94
51781;BME280;37844;57.126;24.288;2023-04-09T06:30:29;102534.31;;;17.68;47.17
51781;BME280;37844;57.126;24.288;2023-04-09T06:33:14;102542.50;;;18.92;45.51
51781;BME280;37844;57.126;24.288;2023-04-09T06:35:59;102540.13;;;19.33;44.30
51781;BME280;37844;57.126;24.288;2023-04-09T06:38:43;102541.28;;;19.95;42.85
51781;BME280;37844;57.126;24.288;2023-04-09T06:41:27;102546.56;;;20.01;42.20
51781;BME280;37844;57.126;24.288;2023-04-09T06:44:11;102548.34;;;20.10;42.00
51781;BME280;37844;57.126;24.288;2023-04-09T06:46:56;102550.13;;;20.46;41.27
51781;BME280;37844;57.126;24.288;2023-04-09T06:49:40;102552.75;;;20.88;40.03
51781;BME280;37844;57.126;24.288;2023-04-09T06:52:23;102553.53;;;21.33;39.63
51781;BME280;37844;57.126;24.288;2023-04-09T06:55:08;102545.34;;;22.08;39.12
51781;BME280;37844;57.126;24.288;2023-04-09T06:57:52;102553.47;;;21.64;38.85
51781;BME280;37844;57.126;24.288;2023-04-09T07:00:36;102562.31;;;21.41;38.34
51781;BME280;37844;57.126;24.288;2023-04-09T07:03:20;102562.38;;;20.93;38.83
51781;BME280;37844;57.126;24.288;2023-04-09T07:06:04;102560.41;;;21.83;38.46
51781;BME280;37844;57.126;24.288;2023-04-09T07:08:48;102551.28;;;22.42;38.17
51781;BME280;37844;57.126;24.288;2023-04-09T07:11:32;102559.16;;;22.46;37.87
51781;BME280;37844;57.126;24.288;2023-04-09T07:14:16;102558.97;;;22.69;37.78
51781;BME280;37844;57.126;24.288;2023-04-09T07:17:00;102559.13;;;24.11;36.42
51781;BME280;37844;57.126;24.288;2023-04-09T07:19:44;102555.66;;;24.09;35.84
51781;BME280;37844;57.126;24.288;2023-04-09T07:22:28;102557.22;;;24.21;35.16
51781;BME280;37844;57.126;24.288;2023-04-09T07:25:13;102551.88;;;24.25;35.57
51781;BME280;37844;57.126;24.288;2023-04-09T07:27:57;102557.69;;;23.88;35.12
51781;BME280;37844;57.126;24.288;2023-04-09T07:30:42;102554.53;;;24.22;35.14
51781;BME280;37844;57.126;24.288;2023-04-09T07:33:25;102556.69;;;25.93;34.24
51781;BME280;37844;57.126;24.288;2023-04-09T07:36:09;102564.44;;;25.60;33.49
51781;BME280;37844;57.126;24.288;2023-04-09T07:38:53;102556.59;;;25.97;32.52
51781;BME280;37844;57.126;24.288;2023-04-09T07:41:38;102566.72;;;25.33;32.45
51781;BME280;37844;57.126;24.288;2023-04-09T07:44:22;102567.13;;;25.12;32.71
51781;BME280;37844;57.126;24.288;2023-04-09T07:47:07;102563.94;;;24.94;32.93
51781;BME280;37844;57.126;24.288;2023-04-09T07:49:51;102569.19;;;25.43;33.16
51781;BME280;37844;57.126;24.288;2023-04-09T07:52:35;102560.16;;;26.34;32.08
51781;BME280;37844;57.126;24.288;2023-04-09T07:55:19;102571.91;;;26.94;32.59
51781;BME280;37844;57.126;24.288;2023-04-09T07:58:03;102563.66;;;25.98;32.39
51781;BME280;37844;57.126;24.288;2023-04-09T08:00:48;102570.06;;;26.24;32.00
51781;BME280;37844;57.126;24.288;2023-04-09T08:03:32;102561.97;;;27.35;31.63
51781;BME280;37844;57.126;24.288;2023-04-09T08:06:18;102558.22;;;26.40;32.50
51781;BME280;37844;57.126;24.288;2023-04-09T08:09:02;102560.81;;;26.79;31.78
51781;BME280;37844;57.126;24.288;2023-04-09T08:11:46;102561.81;;;26.74;32.24
51781;BME280;37844;57.126;24.288;2023-04-09T08:14:30;102554.13;;;26.99;32.21
51781;BME280;37844;57.126;24.288;2023-04-09T08:17:14;102560.69;;;26.84;32.88
51781;BME280;37844;57.126;24.288;2023-04-09T08:19:58;102558.91;;;26.84;31.66
51781;BME280;37844;57.126;24.288;2023-04-09T08:22:42;102554.84;;;27.04;32.03
51781;BME280;37844;57.126;24.288;2023-04-09T08:25:26;102550.53;;;27.00;31.43
51781;BME280;37844;57.126;24.288;2023-04-09T08:28:10;102547.94;;;26.65;30.76
51781;BME280;37844;57.126;24.288;2023-04-09T08:30:55;102548.94;;;25.84;31.66
51781;BME280;37844;57.126;24.288;2023-04-09T08:33:38;102550.25;;;26.42;31.36
51781;BME280;37844;57.126;24.288;2023-04-09T08:36:23;102545.16;;;25.98;31.62
51781;BME280;37844;57.126;24.288;2023-04-09T08:39:15;102545.84;;;26.42;31.97
51781;BME280;37844;57.126;24.288;2023-04-09T08:42:03;102545.38;;;27.28;30.75
51781;BME280;37844;57.126;24.288;2023-04-09T08:44:49;102549.78;;;26.62;31.10
51781;BME280;37844;57.126;24.288;2023-04-09T08:47:33;102550.47;;;27.03;30.38
51781;BME280;37844;57.126;24.288;2023-04-09T08:50:18;102547.09;;;26.65;30.60
51781;BME280;37844;57.126;24.288;2023-04-09T08:53:04;102549.44;;;27.41;30.58
51781;BME280;37844;57.126;24.288;2023-04-09T08:55:48;102544.47;;;26.63;30.07
51781;BME280;37844;57.126;24.288;2023-04-09T08:58:33;102546.66;;;26.09;30.66
51781;BME280;37844;57.126;24.288;2023-04-09T09:04:08;102538.91;;;25.60;30.50
51781;BME280;37844;57.126;24.288;2023-04-09T09:06:52;102542.13;;;25.75;30.67
51781;BME280;37844;57.126;24.288;2023-04-09T09:09:58;102548.28;;;24.85;31.36
51781;BME280;37844;57.126;24.288;2023-04-09T09:12:43;102544.38;;;25.06;31.96
51781;BME280;37844;57.126;24.288;2023-04-09T09:15:28;102544.69;;;24.89;32.86
51781;BME280;37844;57.126;24.288;2023-04-09T09:18:12;102540.75;;;25.97;32.20
51781;BME280;37844;57.126;24.288;2023-04-09T09:21:08;102542.56;;;26.69;32.12
51781;BME280;37844;57.126;24.288;2023-04-09T09:23:52;102542.09;;;26.87;30.46
51781;BME280;37844;57.126;24.288;2023-04-09T09:26:36;102539.84;;;25.58;30.88
51781;BME280;37844;57.126;24.288;2023-04-09T09:29:21;102535.91;;;25.77;32.18
51781;BME280;37844;57.126;24.288;2023-04-09T09:32:05;102538.28;;;25.90;30.52
51781;BME280;37844;57.126;24.288;2023-04-09T09:37:45;102539.81;;;27.06;31.91
51781;BME280;37844;57.126;24.288;2023-04-09T09:40:29;102539.88;;;26.70;33.08
51781;BME280;37844;57.126;24.288;2023-04-09T09:43:13;102540.31;;;26.52;33.79
51781;BME280;37844;57.126;24.288;2023-04-09T09:45:58;102542.97;;;25.75;35.07
51781;BME280;37844;57.126;24.288;2023-04-09T09:48:43;102546.31;;;24.47;35.64
51781;BME280;37844;57.126;24.288;2023-04-09T09:51:32;102539.44;;;24.86;35.83
51781;BME280;37844;57.126;24.288;2023-04-09T09:54:16;102537.94;;;24.19;36.47
51781;BME280;37844;57.126;24.288;2023-04-09T09:57:06;102541.28;;;23.66;36.38
51781;BME280;37844;57.126;24.288;2023-04-09T09:59:52;102548.34;;;22.79;37.29
51781;BME280;37844;57.126;24.288;2023-04-09T10:02:39;102547.72;;;22.50;37.50
51781;BME280;37844;57.126;24.288;2023-04-09T10:05:26;102551.50;;;22.04;38.14
51781;BME280;37844;57.126;24.288;2023-04-09T10:08:10;102553.13;;;22.31;38.35
51781;BME280;37844;57.126;24.288;2023-04-09T10:10:55;102552.72;;;21.22;38.75
51781;BME280;37844;57.126;24.288;2023-04-09T10:13:40;102547.44;;;21.43;39.70
51781;BME280;37844;57.126;24.288;2023-04-09T10:16:26;102542.13;;;21.60;39.50
51781;BME280;37844;57.126;24.288;2023-04-09T10:19:11;102551.88;;;20.95;40.53
51781;BME280;37844;57.126;24.288;2023-04-09T10:22:19;102551.88;;;20.50;40.49
51781;BME280;37844;57.126;24.288;2023-04-09T10:25:02;102557.91;;;20.09;41.23
51781;BME280;37844;57.126;24.288;2023-04-09T10:28:05;102557.94;;;20.16;41.34
51781;BME280;37844;57.126;24.288;2023-04-09T10:30:57;102561.94;;;19.34;41.17
51781;BME280;37844;57.126;24.288;2023-04-09T10:33:42;102550.66;;;19.42;41.61
51781;BME280;37844;57.126;24.288;2023-04-09T10:36:26;102554.16;;;19.41;41.93
51781;BME280;37844;57.126;24.288;2023-04-09T10:39:14;102555.63;;;18.99;42.67
51781;BME280;37844;57.126;24.288;2023-04-09T10:42:06;102556.03;;;18.46;42.62
51781;BME280;37844;57.126;24.288;2023-04-09T10:47:54;102557.88;;;18.56;43.48
51781;BME280;37844;57.126;24.288;2023-04-09T10:50:38;102559.50;;;18.45;43.28
51781;BME280;37844;57.126;24.288;2023-04-09T10:53:23;102555.78;;;18.21;43.45
51781;BME280;37844;57.126;24.288;2023-04-09T10:56:13;102565.38;;;18.22;42.89
51781;BME280;37844;57.126;24.288;2023-04-09T10:58:57;102557.28;;;17.96;43.51
51781;BME280;37844;57.126;24.288;2023-04-09T11:01:50;102566.69;;;17.82;44.22
51781;BME280;37844;57.126;24.288;2023-04-09T11:05:00;102561.03;;;17.51;44.19
51781;BME280;37844;57.126;24.288;2023-04-09T11:07:39;102565.25;;;17.43;44.30
51781;BME280;37844;57.126;24.288;2023-04-09T11:10:24;102561.56;;;17.29;44.72
51781;BME280;37844;57.126;24.288;2023-04-09T11:13:13;102556.63;;;17.47;44.96
51781;BME280;37844;57.126;24.288;2023-04-09T11:15:57;102557.47;;;17.45;44.63
51781;BME280;37844;57.126;24.288;2023-04-09T11:18:42;102564.84;;;17.14;44.55
51781;BME280;37844;57.126;24.288;2023-04-09T11:21:26;102559.63;;;17.14;44.51
51781;BME280;37844;57.126;24.288;2023-04-09T11:24:11;102566.50;;;17.10;44.54
51781;BME280;37844;57.126;24.288;2023-04-09T11:26:55;102562.78;;;16.93;45.10
51781;BME280;37844;57.126;24.288;2023-04-09T11:29:39;102562.66;;;16.87;45.76
51781;BME280;37844;57.126;24.288;2023-04-09T11:32:28;102559.53;;;17.06;46.09
51781;BME280;37844;57.126;24.288;2023-04-09T11:35:13;102556.66;;;16.91;45.77
51781;BME280;37844;57.126;24.288;2023-04-09T11:37:57;102559.75;;;16.70;46.62
51781;BME280;37844;57.126;24.288;2023-04-09T11:40:41;102528.34;;;16.59;47.06
51781;BME280;37844;57.126;24.288;2023-04-09T11:43:30;102558.78;;;16.62;46.29
51781;BME280;37844;57.126;24.288;2023-04-09T11:46:14;102559.31;;;16.42;46.92
51781;BME280;37844;57.126;24.288;2023-04-09T11:48:58;102561.19;;;16.51;47.06
51781;BME280;37844;57.126;24.288;2023-04-09T11:51:43;102567.41;;;16.12;46.33
51781;BME280;37844;57.126;24.288;2023-04-09T11:54:30;102556.66;;;15.94;47.43
51781;BME280;37844;57.126;24.288;2023-04-09T11:57:16;102557.88;;;16.13;46.95
51781;BME280;37844;57.126;24.288;2023-04-09T12:00:03;102486.63;;;15.19;46.87
51781;BME280;37844;57.126;24.288;2023-04-09T12:02:57;102555.75;;;15.13;48.55
51781;BME280;37844;57.126;24.288;2023-04-09T12:05:44;102562.72;;;15.15;48.86
51781;BME280;37844;57.126;24.288;2023-04-09T12:08:28;102563.03;;;14.91;49.24
51781;BME280;37844;57.126;24.288;2023-04-09T12:11:13;102561.53;;;15.01;49.37
51781;BME280;37844;57.126;24.288;2023-04-09T12:14:04;102567.38;;;15.29;49.89
51781;BME280;37844;57.126;24.288;2023-04-09T12:16:51;102552.97;;;15.44;50.10
51781;BME280;37844;57.126;24.288;2023-04-09T12:19:35;102557.53;;;15.15;50.26
51781;BME280;37844;57.126;24.288;2023-04-09T12:22:19;102558.09;;;15.02;50.36
51781;BME280;37844;57.126;24.288;2023-04-09T12:25:03;102553.50;;;14.92;50.73
51781;BME280;37844;57.126;24.288;2023-04-09T12:27:47;102545.69;;;14.55;51.05
51781;BME280;37844;57.126;24.288;2023-04-09T12:30:32;102551.00;;;14.60;51.62
51781;BME280;37844;57.126;24.288;2023-04-09T12:33:16;102559.72;;;14.62;51.55
51781;BME280;37844;57.126;24.288;2023-04-09T12:36:00;102550.97;;;14.95;51.91
51781;BME280;37844;57.126;24.288;2023-04-09T12:38:44;102547.66;;;15.00;51.45
51781;BME280;37844;57.126;24.288;2023-04-09T12:41:28;102549.28;;;14.95;51.21
51781;BME280;37844;57.126;24.288;2023-04-09T12:44:12;102543.94;;;14.54;51.18
51781;BME280;37844;57.126;24.288;2023-04-09T12:46:56;102549.28;;;14.60;51.93
51781;BME280;37844;57.126;24.288;2023-04-09T12:49:40;102548.78;;;14.75;51.32
51781;BME280;37844;57.126;24.288;2023-04-09T12:52:27;102552.00;;;14.65;51.76
51781;BME280;37844;57.126;24.288;2023-04-09T12:55:14;102547.78;;;14.70;52.41
51781;BME280;37844;57.126;24.288;2023-04-09T12:57:59;102548.91;;;14.80;52.18
51781;BME280;37844;57.126;24.288;2023-04-09T13:00:44;102548.03;;;14.79;52.44
51781;BME280;37844;57.126;24.288;2023-04-09T13:03:28;102543.88;;;14.53;51.94
51781;BME280;37844;57.126;24.288;2023-04-09T13:06:13;102543.31;;;14.31;52.07
51781;BME280;37844;57.126;24.288;2023-04-09T13:08:57;102547.22;;;13.85;52.76
51781;BME280;37844;57.126;24.288;2023-04-09T13:11:41;102545.22;;;13.75;53.89
51781;BME280;37844;57.126;24.288;2023-04-09T13:14:24;102540.22;;;13.51;54.06
51781;BME280;37844;57.126;24.288;2023-04-09T13:17:08;102539.28;;;13.49;54.90
51781;BME280;37844;57.126;24.288;2023-04-09T13:20:01;102539.78;;;13.66;55.39
51781;BME280;37844;57.126;24.288;2023-04-09T13:22:46;102542.66;;;13.46;55.79
51781;BME280;37844;57.126;24.288;2023-04-09T13:25:31;102542.06;;;13.55;56.11
51781;BME280;37844;57.126;24.288;2023-04-09T13:28:15;102545.88;;;13.68;56.37
51781;BME280;37844;57.126;24.288;2023-04-09T13:31:12;102534.66;;;13.69;56.09
51781;BME280;37844;57.126;24.288;2023-04-09T13:33:56;102531.50;;;13.49;55.55
51781;BME280;37844;57.126;24.288;2023-04-09T13:36:40;102525.75;;;13.59;55.97
51781;BME280;37844;57.126;24.288;2023-04-09T13:39:24;102529.06;;;13.53;55.72
51781;BME280;37844;57.126;24.288;2023-04-09T13:42:08;102527.97;;;13.47;55.71
51781;BME280;37844;57.126;24.288;2023-04-09T13:44:52;102531.38;;;13.17;55.62
51781;BME280;37844;57.126;24.288;2023-04-09T13:47:36;102529.38;;;13.08;56.14
51781;BME280;37844;57.126;24.288;2023-04-09T13:50:20;102531.63;;;13.26;56.78
51781;BME280;37844;57.126;24.288;2023-04-09T13:53:04;102522.66;;;13.42;56.44
51781;BME280;37844;57.126;24.288;2023-04-09T13:55:49;102520.41;;;13.26;55.91
51781;BME280;37844;57.126;24.288;2023-04-09T13:58:34;102522.25;;;13.28;56.38
51781;BME280;37844;57.126;24.288;2023-04-09T14:01:18;102521.25;;;13.25;56.42
51781;BME280;37844;57.126;24.288;2023-04-09T14:04:01;102521.47;;;13.31;56.74
51781;BME280;37844;57.126;24.288;2023-04-09T14:06:46;102525.00;;;13.07;55.58
51781;BME280;37844;57.126;24.288;2023-04-09T14:09:30;102524.69;;;12.97;56.04
51781;BME280;37844;57.126;24.288;2023-04-09T14:12:14;102525.75;;;12.76;55.97
51781;BME280;37844;57.126;24.288;2023-04-09T14:14:58;102528.84;;;12.91;56.53
51781;BME280;37844;57.126;24.288;2023-04-09T14:17:42;102526.94;;;12.86;56.22
51781;BME280;37844;57.126;24.288;2023-04-09T14:20:27;102527.84;;;12.86;57.24
51781;BME280;37844;57.126;24.288;2023-04-09T14:23:11;102524.47;;;12.63;56.84
51781;BME280;37844;57.126;24.288;2023-04-09T14:25:55;102518.78;;;12.73;56.34
51781;BME280;37844;57.126;24.288;2023-04-09T14:28:39;102525.81;;;12.78;56.11